Hauptseite
METAR-TAF:

METAR-TAF

Flughäfen :

Tongatapu, Tonga

Flughafen Fuaʻamotu

Breite: 21-14S, Länge: 175-09W, Höhe: 38 m

Beobachtung

Neuester Wetterbericht von vor 19 Minuten, um 18:00 UTC
Wind 5 kt aus Süd/Südost
Temperatur 24°C
Luftfeuchtigkeit 94%
Luftdruck 1012 hPa
Sichtweite 10 km oder mehr
Aufgelockert bewölkt in der Höhe von 600 ft
Durchbrochene Bewölkung in der Höhe von 1600 ft
Regenschauer

METAR: NFTF 221800Z 15005KT 9999 -SHRA SCT006 BKN016 24/23 Q1012

Zeit: 07:19 (18:19 UTC)

Prognose

Neuester Wetterbericht von vor 1 Stunde und 16 Minuten, um 17:03 UTC
Gültige Prognose vom 22 um 18 UTC bis 23 um 18 UTC
Wind 7 kt aus Süd/Südost
Sichtweite 10 km oder mehr
Leicht bewölkt in der Höhe von 1600 ft

TAF: NFTF 221703Z 2218/2318 15007KT 9999 FEW016

Wetterbeobachtungen und Prognosen von mehr als 4000 Flughäfen (METAR und TAF Bericht).

Die verfügbaren Stationen werden durch gelbe und rote Markierungen auf der Karte dargestellt.

Führen Sie die Maus auf sie, um den Namen der Station zu sehen.

Darauf klicken, um die Beobachtung von Wetterbeobachtungen und Prognosen zu sehen.

Um die Karte zu ändern : klicken Sie auf den grünen Tasten mit einem schwarzen Kreuz Zum Vergrößern, auf den grünen Button mit einem Gedankenstrich zu verkleinern, oder auf die grünen Pfeile für benachbarte Karten.


METAR-TAF: